sensor_id;sensor_type;location;lat;lon;timestamp;P1;durP1;ratioP1;P2;durP2;ratioP2
65706;SDS011;52423;43.512;5.220;2023-09-30T00:01:35;3.55;;;2.13;;
65706;SDS011;52423;43.512;5.220;2023-09-30T00:04:00;4.10;;;2.60;;
65706;SDS011;52423;43.512;5.220;2023-09-30T00:06:27;6.07;;;2.63;;
65706;SDS011;52423;43.512;5.220;2023-09-30T00:08:53;3.15;;;2.20;;
65706;SDS011;52423;43.512;5.220;2023-09-30T00:11:18;5.32;;;1.85;;
65706;SDS011;52423;43.512;5.220;2023-09-30T00:13:44;5.10;;;2.88;;
65706;SDS011;52423;43.512;5.220;2023-09-30T00:16:10;2.90;;;2.15;;
65706;SDS011;52423;43.512;5.220;2023-09-30T00:18:36;4.90;;;3.08;;
65706;SDS011;52423;43.512;5.220;2023-09-30T00:21:01;3.10;;;2.45;;
65706;SDS011;52423;43.512;5.220;2023-09-30T00:23:27;3.20;;;2.03;;
65706;SDS011;52423;43.512;5.220;2023-09-30T00:25:53;4.65;;;3.17;;
65706;SDS011;52423;43.512;5.220;2023-09-30T00:28:19;4.53;;;2.50;;
65706;SDS011;52423;43.512;5.220;2023-09-30T00:30:44;4.18;;;2.35;;
65706;SDS011;52423;43.512;5.220;2023-09-30T00:33:12;2.80;;;2.22;;
65706;SDS011;52423;43.512;5.220;2023-09-30T00:35:38;4.97;;;2.65;;
65706;SDS011;52423;43.512;5.220;2023-09-30T00:38:04;2.92;;;2.45;;
65706;SDS011;52423;43.512;5.220;2023-09-30T00:40:29;5.45;;;2.45;;
65706;SDS011;52423;43.512;5.220;2023-09-30T00:42:55;3.88;;;2.53;;
65706;SDS011;52423;43.512;5.220;2023-09-30T00:45:20;3.17;;;2.55;;
65706;SDS011;52423;43.512;5.220;2023-09-30T00:47:46;4.78;;;2.50;;
65706;SDS011;52423;43.512;5.220;2023-09-30T00:50:11;4.63;;;3.05;;
65706;SDS011;52423;43.512;5.220;2023-09-30T00:52:38;5.25;;;2.55;;
65706;SDS011;52423;43.512;5.220;2023-09-30T00:55:05;4.43;;;2.88;;
65706;SDS011;52423;43.512;5.220;2023-09-30T00:57:31;5.28;;;3.10;;
65706;SDS011;52423;43.512;5.220;2023-09-30T00:59:57;4.35;;;3.17;;
65706;SDS011;52423;43.512;5.220;2023-09-30T01:02:23;4.32;;;2.75;;
65706;SDS011;52423;43.512;5.220;2023-09-30T01:04:49;4.30;;;3.13;;
65706;SDS011;52423;43.512;5.220;2023-09-30T01:07:15;5.90;;;2.72;;
65706;SDS011;52423;43.512;5.220;2023-09-30T01:09:40;3.75;;;2.58;;
65706;SDS011;52423;43.512;5.220;2023-09-30T01:12:06;5.00;;;3.10;;
65706;SDS011;52423;43.512;5.220;2023-09-30T01:14:33;5.03;;;2.67;;
65706;SDS011;52423;43.512;5.220;2023-09-30T01:17:00;5.10;;;3.30;;
65706;SDS011;52423;43.512;5.220;2023-09-30T01:19:26;8.30;;;3.67;;
65706;SDS011;52423;43.512;5.220;2023-09-30T01:21:55;4.95;;;3.38;;
65706;SDS011;52423;43.512;5.220;2023-09-30T01:24:29;4.25;;;2.65;;
65706;SDS011;52423;43.512;5.220;2023-09-30T01:26:55;5.88;;;3.03;;
65706;SDS011;52423;43.512;5.220;2023-09-30T01:29:21;5.13;;;3.72;;
65706;SDS011;52423;43.512;5.220;2023-09-30T01:31:47;5.90;;;3.08;;
65706;SDS011;52423;43.512;5.220;2023-09-30T01:34:14;4.28;;;2.25;;
65706;SDS011;52423;43.512;5.220;2023-09-30T01:36:41;4.32;;;2.88;;
65706;SDS011;52423;43.512;5.220;2023-09-30T01:39:08;4.25;;;3.03;;
65706;SDS011;52423;43.512;5.220;2023-09-30T01:41:35;5.88;;;2.95;;
65706;SDS011;52423;43.512;5.220;2023-09-30T01:44:01;6.38;;;3.28;;
65706;SDS011;52423;43.512;5.220;2023-09-30T01:46:27;4.38;;;3.10;;
65706;SDS011;52423;43.512;5.220;2023-09-30T01:48:52;5.38;;;3.35;;
65706;SDS011;52423;43.512;5.220;2023-09-30T01:51:18;7.53;;;4.25;;
65706;SDS011;52423;43.512;5.220;2023-09-30T01:53:43;4.43;;;3.10;;
65706;SDS011;52423;43.512;5.220;2023-09-30T01:56:08;5.57;;;3.38;;
65706;SDS011;52423;43.512;5.220;2023-09-30T01:58:34;6.28;;;3.58;;
65706;SDS011;52423;43.512;5.220;2023-09-30T02:01:02;6.72;;;3.78;;
65706;SDS011;52423;43.512;5.220;2023-09-30T02:03:29;9.88;;;4.00;;
65706;SDS011;52423;43.512;5.220;2023-09-30T02:05:55;7.30;;;3.35;;
65706;SDS011;52423;43.512;5.220;2023-09-30T02:08:21;10.35;;;4.28;;
65706;SDS011;52423;43.512;5.220;2023-09-30T02:10:47;9.55;;;4.75;;
65706;SDS011;52423;43.512;5.220;2023-09-30T02:13:12;8.05;;;3.28;;
65706;SDS011;52423;43.512;5.220;2023-09-30T02:15:41;10.25;;;3.63;;
65706;SDS011;52423;43.512;5.220;2023-09-30T02:18:06;8.63;;;4.05;;
65706;SDS011;52423;43.512;5.220;2023-09-30T02:20:32;7.20;;;3.47;;
65706;SDS011;52423;43.512;5.220;2023-09-30T02:22:57;9.73;;;3.95;;
65706;SDS011;52423;43.512;5.220;2023-09-30T02:25:24;8.85;;;4.35;;
65706;SDS011;52423;43.512;5.220;2023-09-30T02:27:50;8.40;;;3.50;;
65706;SDS011;52423;43.512;5.220;2023-09-30T02:30:15;11.55;;;4.47;;
65706;SDS011;52423;43.512;5.220;2023-09-30T02:32:41;8.57;;;4.40;;
65706;SDS011;52423;43.512;5.220;2023-09-30T02:35:07;8.65;;;3.30;;
65706;SDS011;52423;43.512;5.220;2023-09-30T02:37:36;8.32;;;4.53;;
65706;SDS011;52423;43.512;5.220;2023-09-30T02:40:05;10.98;;;4.15;;
65706;SDS011;52423;43.512;5.220;2023-09-30T02:42:35;9.15;;;4.32;;
65706;SDS011;52423;43.512;5.220;2023-09-30T02:45:04;9.30;;;5.38;;
65706;SDS011;52423;43.512;5.220;2023-09-30T02:47:31;6.15;;;3.95;;
65706;SDS011;52423;43.512;5.220;2023-09-30T02:49:57;4.95;;;3.25;;
65706;SDS011;52423;43.512;5.220;2023-09-30T02:52:23;6.60;;;3.90;;
65706;SDS011;52423;43.512;5.220;2023-09-30T02:54:49;6.85;;;3.63;;
65706;SDS011;52423;43.512;5.220;2023-09-30T02:57:14;5.53;;;3.83;;
65706;SDS011;52423;43.512;5.220;2023-09-30T02:59:40;7.90;;;4.00;;
65706;SDS011;52423;43.512;5.220;2023-09-30T03:02:06;8.02;;;3.92;;
65706;SDS011;52423;43.512;5.220;2023-09-30T03:04:32;6.95;;;2.92;;
65706;SDS011;52423;43.512;5.220;2023-09-30T03:06:57;8.70;;;5.00;;
65706;SDS011;52423;43.512;5.220;2023-09-30T03:09:23;8.63;;;5.30;;
65706;SDS011;52423;43.512;5.220;2023-09-30T03:11:48;9.93;;;5.35;;
65706;SDS011;52423;43.512;5.220;2023-09-30T03:14:15;9.23;;;4.03;;
65706;SDS011;52423;43.512;5.220;2023-09-30T03:16:40;6.85;;;3.72;;
65706;SDS011;52423;43.512;5.220;2023-09-30T03:19:07;9.00;;;4.60;;
65706;SDS011;52423;43.512;5.220;2023-09-30T03:21:36;7.35;;;4.60;;
65706;SDS011;52423;43.512;5.220;2023-09-30T03:24:03;11.25;;;5.10;;
65706;SDS011;52423;43.512;5.220;2023-09-30T03:26:29;8.85;;;3.55;;
65706;SDS011;52423;43.512;5.220;2023-09-30T03:28:55;8.73;;;4.68;;
65706;SDS011;52423;43.512;5.220;2023-09-30T03:31:21;11.18;;;4.63;;
65706;SDS011;52423;43.512;5.220;2023-09-30T03:33:47;8.93;;;4.63;;
65706;SDS011;52423;43.512;5.220;2023-09-30T03:36:16;9.38;;;4.72;;
65706;SDS011;52423;43.512;5.220;2023-09-30T03:38:42;10.48;;;4.78;;
65706;SDS011;52423;43.512;5.220;2023-09-30T03:41:07;10.10;;;4.13;;
65706;SDS011;52423;43.512;5.220;2023-09-30T03:43:33;9.05;;;4.43;;
65706;SDS011;52423;43.512;5.220;2023-09-30T03:46:02;11.35;;;3.92;;
65706;SDS011;52423;43.512;5.220;2023-09-30T03:48:27;9.43;;;3.83;;
65706;SDS011;52423;43.512;5.220;2023-09-30T03:50:53;12.57;;;4.85;;
65706;SDS011;52423;43.512;5.220;2023-09-30T03:53:18;10.68;;;4.72;;
65706;SDS011;52423;43.512;5.220;2023-09-30T03:55:44;10.45;;;4.22;;
65706;SDS011;52423;43.512;5.220;2023-09-30T03:58:10;11.43;;;4.90;;
65706;SDS011;52423;43.512;5.220;2023-09-30T04:00:37;10.43;;;4.22;;
65706;SDS011;52423;43.512;5.220;2023-09-30T04:03:04;13.57;;;4.75;;
65706;SDS011;52423;43.512;5.220;2023-09-30T04:05:30;12.55;;;5.00;;
65706;SDS011;52423;43.512;5.220;2023-09-30T04:07:59;10.52;;;4.75;;
65706;SDS011;52423;43.512;5.220;2023-09-30T04:10:24;13.40;;;5.55;;
65706;SDS011;52423;43.512;5.220;2023-09-30T04:12:50;11.80;;;5.35;;
65706;SDS011;52423;43.512;5.220;2023-09-30T04:15:17;9.95;;;4.20;;
65706;SDS011;52423;43.512;5.220;2023-09-30T04:17:43;10.15;;;4.25;;
65706;SDS011;52423;43.512;5.220;2023-09-30T04:20:09;11.10;;;5.63;;
65706;SDS011;52423;43.512;5.220;2023-09-30T04:22:36;10.50;;;4.70;;
65706;SDS011;52423;43.512;5.220;2023-09-30T04:25:02;6.78;;;3.28;;
65706;SDS011;52423;43.512;5.220;2023-09-30T04:27:33;9.88;;;4.70;;
65706;SDS011;52423;43.512;5.220;2023-09-30T04:29:59;14.07;;;5.63;;
65706;SDS011;52423;43.512;5.220;2023-09-30T04:32:24;9.32;;;4.00;;
65706;SDS011;52423;43.512;5.220;2023-09-30T04:34:52;10.07;;;3.90;;
65706;SDS011;52423;43.512;5.220;2023-09-30T04:37:17;7.85;;;3.60;;
65706;SDS011;52423;43.512;5.220;2023-09-30T04:39:44;11.70;;;4.15;;
65706;SDS011;52423;43.512;5.220;2023-09-30T04:42:09;13.02;;;4.20;;
65706;SDS011;52423;43.512;5.220;2023-09-30T04:44:36;11.88;;;4.88;;
65706;SDS011;52423;43.512;5.220;2023-09-30T04:47:03;11.98;;;4.25;;
65706;SDS011;52423;43.512;5.220;2023-09-30T04:49:29;11.60;;;4.68;;
65706;SDS011;52423;43.512;5.220;2023-09-30T04:51:54;10.35;;;3.65;;
65706;SDS011;52423;43.512;5.220;2023-09-30T04:54:20;11.27;;;4.93;;
65706;SDS011;52423;43.512;5.220;2023-09-30T04:56:46;9.23;;;4.75;;
65706;SDS011;52423;43.512;5.220;2023-09-30T04:59:12;11.18;;;4.30;;
65706;SDS011;52423;43.512;5.220;2023-09-30T05:01:37;10.32;;;4.07;;
65706;SDS011;52423;43.512;5.220;2023-09-30T05:04:03;11.52;;;5.15;;
65706;SDS011;52423;43.512;5.220;2023-09-30T05:06:29;10.98;;;4.28;;
65706;SDS011;52423;43.512;5.220;2023-09-30T05:08:55;12.07;;;4.90;;
65706;SDS011;52423;43.512;5.220;2023-09-30T05:11:20;13.45;;;4.50;;
65706;SDS011;52423;43.512;5.220;2023-09-30T05:13:46;13.88;;;5.03;;
65706;SDS011;52423;43.512;5.220;2023-09-30T05:16:11;11.90;;;5.45;;
65706;SDS011;52423;43.512;5.220;2023-09-30T05:18:38;9.25;;;3.80;;
65706;SDS011;52423;43.512;5.220;2023-09-30T05:21:03;8.63;;;3.65;;
65706;SDS011;52423;43.512;5.220;2023-09-30T05:23:28;12.00;;;4.95;;
65706;SDS011;52423;43.512;5.220;2023-09-30T05:25:54;10.75;;;4.18;;
65706;SDS011;52423;43.512;5.220;2023-09-30T05:28:20;9.48;;;3.80;;
65706;SDS011;52423;43.512;5.220;2023-09-30T05:30:45;11.57;;;3.80;;
65706;SDS011;52423;43.512;5.220;2023-09-30T05:33:11;12.10;;;4.88;;
65706;SDS011;52423;43.512;5.220;2023-09-30T05:35:39;9.18;;;5.70;;
65706;SDS011;52423;43.512;5.220;2023-09-30T05:38:06;8.73;;;3.95;;
65706;SDS011;52423;43.512;5.220;2023-09-30T05:40:32;9.48;;;4.65;;
65706;SDS011;52423;43.512;5.220;2023-09-30T05:42:57;9.95;;;5.65;;
65706;SDS011;52423;43.512;5.220;2023-09-30T05:45:24;8.88;;;4.25;;
65706;SDS011;52423;43.512;5.220;2023-09-30T05:47:51;9.55;;;4.22;;
65706;SDS011;52423;43.512;5.220;2023-09-30T05:50:17;8.68;;;4.10;;
65706;SDS011;52423;43.512;5.220;2023-09-30T05:52:48;10.30;;;4.55;;
65706;SDS011;52423;43.512;5.220;2023-09-30T05:55:16;9.93;;;5.60;;
65706;SDS011;52423;43.512;5.220;2023-09-30T05:57:44;12.55;;;4.65;;
65706;SDS011;52423;43.512;5.220;2023-09-30T06:00:11;9.95;;;4.88;;
65706;SDS011;52423;43.512;5.220;2023-09-30T06:02:53;7.30;;;3.70;;
65706;SDS011;52423;43.512;5.220;2023-09-30T06:05:19;8.18;;;4.07;;
65706;SDS011;52423;43.512;5.220;2023-09-30T06:07:47;11.18;;;7.30;;
65706;SDS011;52423;43.512;5.220;2023-09-30T06:10:13;10.23;;;4.53;;
65706;SDS011;52423;43.512;5.220;2023-09-30T06:12:49;7.18;;;3.55;;
65706;SDS011;52423;43.512;5.220;2023-09-30T06:15:20;9.65;;;4.38;;
65706;SDS011;52423;43.512;5.220;2023-09-30T06:17:51;10.40;;;5.05;;
65706;SDS011;52423;43.512;5.220;2023-09-30T06:20:20;9.15;;;3.75;;
65706;SDS011;52423;43.512;5.220;2023-09-30T06:22:47;9.43;;;5.57;;
65706;SDS011;52423;43.512;5.220;2023-09-30T06:25:19;8.70;;;4.38;;
65706;SDS011;52423;43.512;5.220;2023-09-30T06:27:47;8.95;;;4.20;;
65706;SDS011;52423;43.512;5.220;2023-09-30T06:30:16;8.27;;;3.92;;
65706;SDS011;52423;43.512;5.220;2023-09-30T06:32:42;6.88;;;4.10;;
65706;SDS011;52423;43.512;5.220;2023-09-30T06:35:08;9.75;;;3.85;;
65706;SDS011;52423;43.512;5.220;2023-09-30T06:37:37;6.00;;;4.10;;
65706;SDS011;52423;43.512;5.220;2023-09-30T06:40:07;8.90;;;4.13;;
65706;SDS011;52423;43.512;5.220;2023-09-30T06:42:34;7.32;;;4.40;;
65706;SDS011;52423;43.512;5.220;2023-09-30T06:45:01;9.13;;;4.45;;
65706;SDS011;52423;43.512;5.220;2023-09-30T06:47:30;7.05;;;4.15;;
65706;SDS011;52423;43.512;5.220;2023-09-30T06:52:37;6.60;;;3.88;;
65706;SDS011;52423;43.512;5.220;2023-09-30T06:55:03;5.80;;;3.58;;
65706;SDS011;52423;43.512;5.220;2023-09-30T06:57:31;8.02;;;4.45;;
65706;SDS011;52423;43.512;5.220;2023-09-30T06:59:57;9.38;;;3.85;;
65706;SDS011;52423;43.512;5.220;2023-09-30T07:02:22;9.20;;;5.50;;
65706;SDS011;52423;43.512;5.220;2023-09-30T07:04:49;8.38;;;3.40;;
65706;SDS011;52423;43.512;5.220;2023-09-30T07:07:14;6.43;;;3.47;;
65706;SDS011;52423;43.512;5.220;2023-09-30T07:09:40;9.57;;;4.65;;
65706;SDS011;52423;43.512;5.220;2023-09-30T07:12:05;8.40;;;4.38;;
65706;SDS011;52423;43.512;5.220;2023-09-30T07:14:32;10.25;;;4.53;;
65706;SDS011;52423;43.512;5.220;2023-09-30T07:16:57;9.02;;;4.85;;
65706;SDS011;52423;43.512;5.220;2023-09-30T07:19:22;6.85;;;4.13;;
65706;SDS011;52423;43.512;5.220;2023-09-30T07:21:48;8.75;;;4.13;;
65706;SDS011;52423;43.512;5.220;2023-09-30T07:24:13;11.57;;;4.50;;
65706;SDS011;52423;43.512;5.220;2023-09-30T07:26:39;10.75;;;3.58;;
65706;SDS011;52423;43.512;5.220;2023-09-30T07:29:05;9.02;;;3.88;;
65706;SDS011;52423;43.512;5.220;2023-09-30T07:31:34;11.20;;;3.97;;
65706;SDS011;52423;43.512;5.220;2023-09-30T07:34:01;7.80;;;4.10;;
65706;SDS011;52423;43.512;5.220;2023-09-30T07:36:26;8.18;;;4.53;;
65706;SDS011;52423;43.512;5.220;2023-09-30T07:38:52;9.45;;;3.03;;
65706;SDS011;52423;43.512;5.220;2023-09-30T07:41:18;10.98;;;4.32;;
65706;SDS011;52423;43.512;5.220;2023-09-30T07:43:43;8.13;;;3.83;;
65706;SDS011;52423;43.512;5.220;2023-09-30T07:46:09;7.90;;;4.47;;
65706;SDS011;52423;43.512;5.220;2023-09-30T07:48:34;9.52;;;4.22;;
65706;SDS011;52423;43.512;5.220;2023-09-30T07:51:00;9.32;;;4.05;;
65706;SDS011;52423;43.512;5.220;2023-09-30T07:53:26;11.40;;;4.35;;
65706;SDS011;52423;43.512;5.220;2023-09-30T07:55:52;7.32;;;3.72;;
65706;SDS011;52423;43.512;5.220;2023-09-30T07:58:19;7.53;;;3.67;;
65706;SDS011;52423;43.512;5.220;2023-09-30T08:00:44;8.32;;;4.10;;
65706;SDS011;52423;43.512;5.220;2023-09-30T08:03:10;8.00;;;4.10;;
65706;SDS011;52423;43.512;5.220;2023-09-30T08:05:36;8.13;;;4.20;;
65706;SDS011;52423;43.512;5.220;2023-09-30T08:08:02;8.13;;;4.35;;
65706;SDS011;52423;43.512;5.220;2023-09-30T08:10:28;8.18;;;4.15;;
65706;SDS011;52423;43.512;5.220;2023-09-30T08:12:56;7.53;;;4.50;;
65706;SDS011;52423;43.512;5.220;2023-09-30T08:15:23;8.35;;;4.20;;
65706;SDS011;52423;43.512;5.220;2023-09-30T08:17:49;9.80;;;5.00;;
65706;SDS011;52423;43.512;5.220;2023-09-30T08:20:15;10.20;;;4.70;;
65706;SDS011;52423;43.512;5.220;2023-09-30T08:22:40;9.38;;;3.42;;
65706;SDS011;52423;43.512;5.220;2023-09-30T08:25:06;8.80;;;4.40;;
65706;SDS011;52423;43.512;5.220;2023-09-30T08:27:32;10.65;;;4.95;;
65706;SDS011;52423;43.512;5.220;2023-09-30T08:29:57;8.75;;;4.95;;
65706;SDS011;52423;43.512;5.220;2023-09-30T08:32:23;9.20;;;4.22;;
65706;SDS011;52423;43.512;5.220;2023-09-30T08:34:48;11.18;;;4.22;;
65706;SDS011;52423;43.512;5.220;2023-09-30T08:37:14;9.73;;;3.90;;
65706;SDS011;52423;43.512;5.220;2023-09-30T08:39:39;8.65;;;4.28;;
65706;SDS011;52423;43.512;5.220;2023-09-30T08:42:09;9.77;;;4.43;;
65706;SDS011;52423;43.512;5.220;2023-09-30T08:44:38;7.60;;;4.43;;
65706;SDS011;52423;43.512;5.220;2023-09-30T08:47:07;8.18;;;4.18;;
65706;SDS011;52423;43.512;5.220;2023-09-30T08:49:35;8.60;;;3.53;;
65706;SDS011;52423;43.512;5.220;2023-09-30T08:52:04;11.02;;;5.53;;
65706;SDS011;52423;43.512;5.220;2023-09-30T08:54:31;7.88;;;3.97;;
65706;SDS011;52423;43.512;5.220;2023-09-30T08:56:56;10.60;;;4.75;;
65706;SDS011;52423;43.512;5.220;2023-09-30T08:59:22;7.30;;;3.63;;
65706;SDS011;52423;43.512;5.220;2023-09-30T09:01:50;8.77;;;4.70;;
65706;SDS011;52423;43.512;5.220;2023-09-30T09:04:16;5.78;;;3.13;;
65706;SDS011;52423;43.512;5.220;2023-09-30T09:06:42;6.72;;;3.22;;
65706;SDS011;52423;43.512;5.220;2023-09-30T09:11:41;7.07;;;3.40;;
65706;SDS011;52423;43.512;5.220;2023-09-30T09:14:07;11.00;;;3.42;;
65706;SDS011;52423;43.512;5.220;2023-09-30T09:16:33;8.50;;;3.88;;
65706;SDS011;52423;43.512;5.220;2023-09-30T09:18:59;8.07;;;4.15;;
65706;SDS011;52423;43.512;5.220;2023-09-30T09:21:24;7.90;;;3.97;;
65706;SDS011;52423;43.512;5.220;2023-09-30T09:23:53;10.43;;;3.80;;
65706;SDS011;52423;43.512;5.220;2023-09-30T09:26:25;7.13;;;3.45;;
65706;SDS011;52423;43.512;5.220;2023-09-30T09:28:59;9.13;;;3.70;;
65706;SDS011;52423;43.512;5.220;2023-09-30T09:31:29;8.30;;;4.45;;
65706;SDS011;52423;43.512;5.220;2023-09-30T09:33:56;6.28;;;3.40;;
65706;SDS011;52423;43.512;5.220;2023-09-30T09:36:38;10.02;;;4.68;;
65706;SDS011;52423;43.512;5.220;2023-09-30T09:39:05;8.35;;;3.53;;
65706;SDS011;52423;43.512;5.220;2023-09-30T09:41:31;7.78;;;3.83;;
65706;SDS011;52423;43.512;5.220;2023-09-30T09:43:57;7.43;;;4.07;;
65706;SDS011;52423;43.512;5.220;2023-09-30T09:46:24;9.30;;;4.25;;
65706;SDS011;52423;43.512;5.220;2023-09-30T09:48:50;9.85;;;3.58;;
65706;SDS011;52423;43.512;5.220;2023-09-30T09:51:17;7.97;;;4.55;;
65706;SDS011;52423;43.512;5.220;2023-09-30T09:53:43;7.13;;;3.40;;
65706;SDS011;52423;43.512;5.220;2023-09-30T09:56:09;10.55;;;4.60;;
65706;SDS011;52423;43.512;5.220;2023-09-30T09:58:36;8.57;;;4.53;;
65706;SDS011;52423;43.512;5.220;2023-09-30T10:01:07;7.43;;;3.58;;
65706;SDS011;52423;43.512;5.220;2023-09-30T10:03:35;8.18;;;3.65;;
65706;SDS011;52423;43.512;5.220;2023-09-30T10:06:01;6.65;;;3.42;;
65706;SDS011;52423;43.512;5.220;2023-09-30T10:08:37;7.35;;;3.75;;
65706;SDS011;52423;43.512;5.220;2023-09-30T10:11:05;7.63;;;3.35;;
65706;SDS011;52423;43.512;5.220;2023-09-30T10:19:09;10.27;;;3.78;;
65706;SDS011;52423;43.512;5.220;2023-09-30T10:21:39;7.20;;;4.13;;
65706;SDS011;52423;43.512;5.220;2023-09-30T10:35:18;6.25;;;2.30;;
65706;SDS011;52423;43.512;5.220;2023-09-30T10:40:46;8.70;;;3.45;;
65706;SDS011;52423;43.512;5.220;2023-09-30T10:48:54;6.55;;;2.83;;
65706;SDS011;52423;43.512;5.220;2023-09-30T10:51:20;7.40;;;3.45;;
65706;SDS011;52423;43.512;5.220;2023-09-30T10:53:50;6.13;;;3.22;;
65706;SDS011;52423;43.512;5.220;2023-09-30T10:56:17;5.90;;;3.50;;
65706;SDS011;52423;43.512;5.220;2023-09-30T10:58:50;5.47;;;3.38;;
65706;SDS011;52423;43.512;5.220;2023-09-30T11:01:17;8.13;;;3.03;;
65706;SDS011;52423;43.512;5.220;2023-09-30T11:03:47;4.53;;;2.95;;
65706;SDS011;52423;43.512;5.220;2023-09-30T11:06:16;7.13;;;2.38;;
65706;SDS011;52423;43.512;5.220;2023-09-30T11:08:58;9.27;;;3.05;;
65706;SDS011;52423;43.512;5.220;2023-09-30T11:11:32;6.45;;;2.63;;
65706;SDS011;52423;43.512;5.220;2023-09-30T11:13:58;4.32;;;1.55;;
65706;SDS011;52423;43.512;5.220;2023-09-30T11:16:23;4.13;;;2.90;;
65706;SDS011;52423;43.512;5.220;2023-09-30T11:18:52;4.82;;;3.03;;
65706;SDS011;52423;43.512;5.220;2023-09-30T11:21:18;6.50;;;2.80;;
65706;SDS011;52423;43.512;5.220;2023-09-30T11:23:44;6.45;;;2.22;;
65706;SDS011;52423;43.512;5.220;2023-09-30T11:26:09;6.45;;;2.38;;
65706;SDS011;52423;43.512;5.220;2023-09-30T11:28:39;5.03;;;2.50;;
65706;SDS011;52423;43.512;5.220;2023-09-30T11:31:07;4.72;;;2.40;;
65706;SDS011;52423;43.512;5.220;2023-09-30T11:33:46;6.18;;;3.00;;
65706;SDS011;52423;43.512;5.220;2023-09-30T11:36:14;5.15;;;3.95;;
65706;SDS011;52423;43.512;5.220;2023-09-30T11:38:43;8.00;;;3.38;;
65706;SDS011;52423;43.512;5.220;2023-09-30T11:41:10;7.22;;;2.50;;
65706;SDS011;52423;43.512;5.220;2023-09-30T11:43:35;3.47;;;2.13;;
65706;SDS011;52423;43.512;5.220;2023-09-30T11:46:10;3.88;;;2.17;;
65706;SDS011;52423;43.512;5.220;2023-09-30T11:48:39;4.93;;;3.35;;
65706;SDS011;52423;43.512;5.220;2023-09-30T11:51:21;5.35;;;3.72;;
65706;SDS011;52423;43.512;5.220;2023-09-30T11:53:49;5.05;;;2.03;;
65706;SDS011;52423;43.512;5.220;2023-09-30T11:56:15;4.90;;;2.63;;
65706;SDS011;52423;43.512;5.220;2023-09-30T11:58:41;10.38;;;2.80;;
65706;SDS011;52423;43.512;5.220;2023-09-30T12:01:06;5.75;;;2.30;;
65706;SDS011;52423;43.512;5.220;2023-09-30T12:03:32;5.63;;;2.95;;
65706;SDS011;52423;43.512;5.220;2023-09-30T12:06:04;5.07;;;2.40;;
65706;SDS011;52423;43.512;5.220;2023-09-30T12:08:30;5.10;;;2.55;;
65706;SDS011;52423;43.512;5.220;2023-09-30T12:10:55;5.63;;;3.13;;
65706;SDS011;52423;43.512;5.220;2023-09-30T12:13:21;4.60;;;1.90;;
65706;SDS011;52423;43.512;5.220;2023-09-30T12:15:46;3.90;;;2.75;;
65706;SDS011;52423;43.512;5.220;2023-09-30T12:18:11;5.38;;;2.20;;
65706;SDS011;52423;43.512;5.220;2023-09-30T12:20:41;8.38;;;3.22;;
65706;SDS011;52423;43.512;5.220;2023-09-30T12:23:07;4.85;;;2.25;;
65706;SDS011;52423;43.512;5.220;2023-09-30T12:25:33;7.25;;;3.33;;
65706;SDS011;52423;43.512;5.220;2023-09-30T12:27:59;4.35;;;2.10;;
65706;SDS011;52423;43.512;5.220;2023-09-30T12:30:24;6.82;;;4.40;;
65706;SDS011;52423;43.512;5.220;2023-09-30T12:32:51;4.90;;;2.35;;
65706;SDS011;52423;43.512;5.220;2023-09-30T12:35:19;4.22;;;2.33;;
65706;SDS011;52423;43.512;5.220;2023-09-30T12:37:44;4.43;;;2.55;;
65706;SDS011;52423;43.512;5.220;2023-09-30T12:40:10;5.00;;;2.78;;
65706;SDS011;52423;43.512;5.220;2023-09-30T12:42:36;4.07;;;2.47;;
65706;SDS011;52423;43.512;5.220;2023-09-30T12:45:02;5.25;;;2.70;;
65706;SDS011;52423;43.512;5.220;2023-09-30T12:47:30;3.80;;;2.63;;
65706;SDS011;52423;43.512;5.220;2023-09-30T12:49:56;5.95;;;2.33;;
65706;SDS011;52423;43.512;5.220;2023-09-30T12:52:22;4.55;;;2.63;;
65706;SDS011;52423;43.512;5.220;2023-09-30T12:54:49;4.22;;;1.75;;
65706;SDS011;52423;43.512;5.220;2023-09-30T12:57:14;5.05;;;3.20;;
65706;SDS011;52423;43.512;5.220;2023-09-30T12:59:42;4.53;;;2.60;;
65706;SDS011;52423;43.512;5.220;2023-09-30T13:02:11;4.13;;;2.53;;
65706;SDS011;52423;43.512;5.220;2023-09-30T13:04:37;3.90;;;2.83;;
65706;SDS011;52423;43.512;5.220;2023-09-30T13:07:07;4.30;;;3.42;;
65706;SDS011;52423;43.512;5.220;2023-09-30T13:09:33;6.75;;;2.85;;
65706;SDS011;52423;43.512;5.220;2023-09-30T13:11:58;5.25;;;2.95;;
65706;SDS011;52423;43.512;5.220;2023-09-30T13:14:25;4.35;;;2.15;;
65706;SDS011;52423;43.512;5.220;2023-09-30T13:16:53;4.25;;;2.90;;
65706;SDS011;52423;43.512;5.220;2023-09-30T13:19:19;6.32;;;4.53;;
65706;SDS011;52423;43.512;5.220;2023-09-30T13:21:46;5.65;;;2.53;;
65706;SDS011;52423;43.512;5.220;2023-09-30T13:24:12;4.35;;;2.40;;
65706;SDS011;52423;43.512;5.220;2023-09-30T13:26:37;5.10;;;2.80;;
65706;SDS011;52423;43.512;5.220;2023-09-30T13:29:03;4.90;;;1.98;;
65706;SDS011;52423;43.512;5.220;2023-09-30T13:31:30;4.25;;;2.60;;
65706;SDS011;52423;43.512;5.220;2023-09-30T13:33:56;3.70;;;2.05;;
65706;SDS011;52423;43.512;5.220;2023-09-30T13:36:21;3.35;;;2.05;;
65706;SDS011;52423;43.512;5.220;2023-09-30T13:38:47;2.97;;;1.95;;
65706;SDS011;52423;43.512;5.220;2023-09-30T13:41:14;4.47;;;2.45;;
65706;SDS011;52423;43.512;5.220;2023-09-30T13:43:40;3.85;;;3.03;;
65706;SDS011;52423;43.512;5.220;2023-09-30T13:46:06;6.10;;;2.28;;
65706;SDS011;52423;43.512;5.220;2023-09-30T13:48:32;6.57;;;3.65;;
65706;SDS011;52423;43.512;5.220;2023-09-30T13:51:07;4.28;;;2.10;;
65706;SDS011;52423;43.512;5.220;2023-09-30T13:53:33;5.50;;;3.10;;
65706;SDS011;52423;43.512;5.220;2023-09-30T13:55:59;5.20;;;3.35;;
65706;SDS011;52423;43.512;5.220;2023-09-30T13:58:25;5.28;;;3.10;;
65706;SDS011;52423;43.512;5.220;2023-09-30T14:00:51;6.32;;;3.53;;
65706;SDS011;52423;43.512;5.220;2023-09-30T14:03:21;5.20;;;2.63;;
65706;SDS011;52423;43.512;5.220;2023-09-30T14:05:46;4.70;;;2.53;;
65706;SDS011;52423;43.512;5.220;2023-09-30T14:08:12;6.90;;;2.35;;
65706;SDS011;52423;43.512;5.220;2023-09-30T14:10:38;5.93;;;2.70;;
65706;SDS011;52423;43.512;5.220;2023-09-30T14:13:03;5.28;;;3.28;;
65706;SDS011;52423;43.512;5.220;2023-09-30T14:15:29;3.65;;;2.22;;
65706;SDS011;52423;43.512;5.220;2023-09-30T14:17:56;5.28;;;2.83;;
65706;SDS011;52423;43.512;5.220;2023-09-30T14:20:25;6.43;;;3.20;;
65706;SDS011;52423;43.512;5.220;2023-09-30T14:22:51;5.60;;;3.13;;
65706;SDS011;52423;43.512;5.220;2023-09-30T14:25:17;5.60;;;1.70;;
65706;SDS011;52423;43.512;5.220;2023-09-30T14:27:43;6.32;;;3.95;;
65706;SDS011;52423;43.512;5.220;2023-09-30T14:30:08;5.85;;;2.90;;
65706;SDS011;52423;43.512;5.220;2023-09-30T14:32:34;6.93;;;3.67;;
65706;SDS011;52423;43.512;5.220;2023-09-30T14:35:00;5.88;;;4.05;;
65706;SDS011;52423;43.512;5.220;2023-09-30T14:37:25;6.18;;;3.10;;
65706;SDS011;52423;43.512;5.220;2023-09-30T14:39:50;7.38;;;4.30;;
65706;SDS011;52423;43.512;5.220;2023-09-30T14:42:16;7.18;;;3.50;;
65706;SDS011;52423;43.512;5.220;2023-09-30T14:44:41;7.65;;;3.88;;
65706;SDS011;52423;43.512;5.220;2023-09-30T14:47:08;8.70;;;3.80;;
65706;SDS011;52423;43.512;5.220;2023-09-30T14:49:34;7.43;;;2.78;;
65706;SDS011;52423;43.512;5.220;2023-09-30T14:52:00;6.85;;;3.70;;
65706;SDS011;52423;43.512;5.220;2023-09-30T14:54:25;7.47;;;3.97;;
65706;SDS011;52423;43.512;5.220;2023-09-30T14:56:51;8.55;;;4.22;;
65706;SDS011;52423;43.512;5.220;2023-09-30T14:59:17;7.15;;;4.43;;
65706;SDS011;52423;43.512;5.220;2023-09-30T15:01:42;7.43;;;3.38;;
65706;SDS011;52423;43.512;5.220;2023-09-30T15:04:08;8.57;;;3.95;;
65706;SDS011;52423;43.512;5.220;2023-09-30T15:06:33;7.97;;;4.15;;
65706;SDS011;52423;43.512;5.220;2023-09-30T15:09:00;6.22;;;4.03;;
65706;SDS011;52423;43.512;5.220;2023-09-30T15:11:29;7.03;;;3.63;;
65706;SDS011;52423;43.512;5.220;2023-09-30T15:13:55;7.40;;;4.13;;